Time;durP1;ratioP1;P1;durP2;ratioP2;P2;SDS_P1;SDS_P2;PMS_P1;PMS_P2;Temp;Humidity;BMP_temperature;BMP_pressure;BME280_temperature;BME280_humidity;BME280_pressure;Samples;Min_cycle;Max_cycle;Signal;HPM_P1;HPM_P2
2021/12/27 00:00:36;;;;;;;;;;;2.40;95.40;;;;;;5003038;28;19906;-74
2021/12/27 00:03:03;;;;;;;;;;;2.40;95.50;;;;;;4985781;28;20251;-75
2021/12/27 00:05:28;;;;;;;;;;;2.30;95.60;;;;;;5001175;28;19912;-75
2021/12/27 00:07:54;;;;;;;;;;;2.40;95.60;;;;;;5002015;28;19905;-75
2021/12/27 00:10:21;;;;;;;;;;;2.40;95.60;;;;;;5001867;28;19909;-75
2021/12/27 00:12:46;;;;;;;;;;;2.30;95.60;;;;;;5001898;28;19937;-75
2021/12/27 00:15:15;;;;;;;;;;;2.40;95.50;;;;;;5001719;28;19905;-75
2021/12/27 00:17:41;;;;;;;;;;;2.30;95.70;;;;;;4986052;28;19973;-75
2021/12/27 00:20:08;;;;;;;;;;;2.30;95.80;;;;;;5002923;28;19905;-74
2021/12/27 00:22:34;;;;;;;;;;;2.30;95.80;;;;;;5001851;28;19916;-75
2021/12/27 00:24:59;;;;;;;;;;;2.30;95.80;;;;;;5001710;28;19980;-75
2021/12/27 00:27:25;;;;;;;;;;;2.40;95.70;;;;;;5003410;28;20113;-74
2021/12/27 00:29:52;;;;;;;;;;;2.40;95.60;;;;;;5006333;28;19906;-75
2021/12/27 00:32:18;;;;;;;;;;;2.40;95.70;;;;;;5005419;28;19905;-74
2021/12/27 00:34:44;;;;;;;;;;;2.40;95.80;;;;;;5005022;28;19905;-75
2021/12/27 00:37:10;;;;;;;;;;;2.40;95.70;;;;;;5005147;28;20105;-75
2021/12/27 00:39:36;;;;;;;;;;;2.40;95.70;;;;;;5005126;28;19906;-75
2021/12/27 00:42:02;;;;;;;;;;;2.50;95.60;;;;;;5005804;28;19960;-75
2021/12/27 00:44:27;;;;;;;;;;;2.40;95.70;;;;;;5005984;28;19912;-75
2021/12/27 00:46:53;;;;;;;;;;;2.40;95.80;;;;;;4988819;28;19905;-74
2021/12/27 00:49:19;;;;;;;;;;;2.40;95.70;;;;;;4988503;28;19911;-74
2021/12/27 00:51:44;;;;;;;;;;;2.40;95.90;;;;;;5004894;28;19906;-75
2021/12/27 00:54:10;;;;;;;;;;;2.40;95.90;;;;;;5004779;28;19913;-75
2021/12/27 00:56:36;;;;;;;;;;;2.40;96.00;;;;;;5005090;28;19909;-75
2021/12/27 00:59:01;;;;;;;;;;;2.40;95.90;;;;;;5004698;28;19905;-75
2021/12/27 01:01:27;;;;;;;;;;;2.40;96.10;;;;;;4988372;28;20200;-75
2021/12/27 01:03:53;;;;;;;;;;;2.40;95.90;;;;;;5005860;28;19941;-75
2021/12/27 01:06:18;;;;;;;;;;;2.40;95.90;;;;;;4987380;28;19905;-75
2021/12/27 01:08:44;;;;;;;;;;;2.40;96.10;;;;;;5005808;28;19906;-75
2021/12/27 01:13:41;;;;;;;;;;;2.30;96.30;;;;;;5005617;28;19910;-75
2021/12/27 01:18:33;;;;;;;;;;;2.30;96.40;;;;;;5004585;28;19943;-75
2021/12/27 01:20:59;;;;;;;;;;;2.40;96.50;;;;;;5004140;28;20219;-75
2021/12/27 01:23:25;;;;;;;;;;;2.40;96.60;;;;;;5005512;28;19906;-74
2021/12/27 01:25:51;;;;;;;;;;;2.40;96.50;;;;;;5005163;28;19906;-74
2021/12/27 01:28:18;;;;;;;;;;;2.40;96.70;;;;;;5003644;28;19905;-74
2021/12/27 01:30:48;;;;;;;;;;;2.30;96.80;;;;;;5004024;28;19913;-74
2021/12/27 01:33:21;;;;;;;;;;;2.30;97.00;;;;;;4988514;28;19912;-74
2021/12/27 01:35:47;;;;;;;;;;;2.40;96.90;;;;;;5003672;28;19952;-74
2021/12/27 01:38:13;;;;;;;;;;;2.40;96.90;;;;;;4986878;28;20136;-74
2021/12/27 01:40:40;;;;;;;;;;;2.40;97.00;;;;;;4987691;28;19905;-74
2021/12/27 01:43:17;;;;;;;;;;;2.40;97.00;;;;;;5005059;28;19917;-75
2021/12/27 01:46:16;;;;;;;;;;;2.40;97.20;;;;;;4988672;28;19920;-75
2021/12/27 01:48:44;;;;;;;;;;;2.40;97.20;;;;;;5005010;28;19906;-74
2021/12/27 01:51:11;;;;;;;;;;;2.40;97.30;;;;;;5003332;28;19963;-74
2021/12/27 01:53:38;;;;;;;;;;;2.40;97.20;;;;;;5003890;28;20260;-75
2021/12/27 01:56:05;;;;;;;;;;;2.50;97.20;;;;;;5003049;28;20219;-75
2021/12/27 01:58:30;;;;;;;;;;;2.50;97.30;;;;;;5003773;28;19912;-75
2021/12/27 02:00:58;;;;;;;;;;;2.50;97.20;;;;;;4987496;28;19905;-75
2021/12/27 02:03:25;;;;;;;;;;;2.40;97.40;;;;;;5003544;28;19909;-75
2021/12/27 02:05:51;;;;;;;;;;;2.40;97.40;;;;;;5003101;28;19909;-75
2021/12/27 02:08:17;;;;;;;;;;;2.40;97.40;;;;;;5004194;28;20227;-75
2021/12/27 02:10:42;;;;;;;;;;;2.50;97.40;;;;;;5004417;28;19932;-75
2021/12/27 02:13:08;;;;;;;;;;;2.40;97.60;;;;;;5003520;28;19912;-75
2021/12/27 02:15:34;;;;;;;;;;;2.40;97.60;;;;;;4987048;28;19905;-74
2021/12/27 02:18:00;;;;;;;;;;;2.40;97.80;;;;;;5003436;28;19913;-75
2021/12/27 02:20:27;;;;;;;;;;;2.40;97.70;;;;;;5004407;28;20116;-74
2021/12/27 02:22:55;;;;;;;;;;;2.40;97.80;;;;;;5004117;28;19910;-75
2021/12/27 02:25:21;;;;;;;;;;;2.50;97.70;;;;;;5003063;28;19913;-72
2021/12/27 02:27:47;;;;;;;;;;;2.50;97.90;;;;;;5003728;28;19906;-75
2021/12/27 02:30:17;;;;;;;;;;;2.40;97.90;;;;;;5003662;28;19937;-75
2021/12/27 02:32:50;;;;;;;;;;;2.50;97.90;;;;;;5003443;28;19913;-76
2021/12/27 02:35:27;;;;;;;;;;;2.40;98.00;;;;;;5003022;28;19912;-74
2021/12/27 02:37:53;;;;;;;;;;;2.40;98.20;;;;;;5003179;28;20108;-75
2021/12/27 02:40:20;;;;;;;;;;;2.50;98.20;;;;;;5003170;28;20108;-75
2021/12/27 02:43:03;;;;;;;;;;;2.50;98.20;;;;;;5002969;28;19909;-75
2021/12/27 02:45:30;;;;;;;;;;;2.50;98.20;;;;;;5002559;28;19917;-72
2021/12/27 02:47:56;;;;;;;;;;;2.50;98.20;;;;;;5002916;28;19983;-74
2021/12/27 02:50:22;;;;;;;;;;;2.50;98.30;;;;;;5003661;28;19909;-74
2021/12/27 02:52:48;;;;;;;;;;;2.50;98.20;;;;;;5003419;28;19910;-74
2021/12/27 02:55:15;;;;;;;;;;;2.50;98.30;;;;;;5002537;28;20361;-75
2021/12/27 02:57:45;;;;;;;;;;;2.50;98.30;;;;;;5002476;28;19909;-72
2021/12/27 03:00:16;;;;;;;;;;;2.50;98.30;;;;;;5002463;28;19917;-72
2021/12/27 03:02:45;;;;;;;;;;;2.50;98.40;;;;;;5002703;28;19925;-72
2021/12/27 03:05:12;;;;;;;;;;;2.50;98.50;;;;;;5002008;28;19910;-72
2021/12/27 03:07:39;;;;;;;;;;;2.50;98.60;;;;;;5001896;28;19981;-72
2021/12/27 03:10:07;;;;;;;;;;;2.50;98.60;;;;;;5002215;28;19968;-71
2021/12/27 03:12:33;;;;;;;;;;;2.50;98.60;;;;;;5001779;28;20204;-73
2021/12/27 03:14:59;;;;;;;;;;;2.60;98.50;;;;;;5001993;28;19906;-73
2021/12/27 03:17:24;;;;;;;;;;;2.50;98.40;;;;;;5003575;28;20228;-73
2021/12/27 03:19:50;;;;;;;;;;;2.60;98.50;;;;;;5002402;28;19960;-74
2021/12/27 03:22:16;;;;;;;;;;;2.60;98.30;;;;;;5002194;28;19917;-74
2021/12/27 03:24:42;;;;;;;;;;;2.60;98.30;;;;;;4985967;28;19905;-74
2021/12/27 03:27:07;;;;;;;;;;;2.60;98.40;;;;;;4986332;28;19947;-74
2021/12/27 03:29:33;;;;;;;;;;;2.70;98.30;;;;;;5003502;28;19976;-73
2021/12/27 03:31:59;;;;;;;;;;;2.70;98.30;;;;;;5002391;28;19906;-73
2021/12/27 03:34:24;;;;;;;;;;;2.60;98.60;;;;;;5002146;28;19906;-73
2021/12/27 03:36:50;;;;;;;;;;;2.60;98.80;;;;;;5003302;28;19906;-72
2021/12/27 03:39:16;;;;;;;;;;;2.60;98.70;;;;;;5003464;28;19905;-72
2021/12/27 03:41:41;;;;;;;;;;;2.70;98.60;;;;;;5003087;28;20200;-72
2021/12/27 03:44:07;;;;;;;;;;;2.70;98.40;;;;;;5002257;28;19964;-72
2021/12/27 03:46:33;;;;;;;;;;;2.70;98.30;;;;;;5003216;28;19912;-72
2021/12/27 03:48:58;;;;;;;;;;;2.60;98.50;;;;;;5003291;28;20250;-72
2021/12/27 03:51:24;;;;;;;;;;;2.60;98.80;;;;;;5002979;28;19905;-73
2021/12/27 03:53:50;;;;;;;;;;;2.60;98.70;;;;;;5002198;28;19921;-72
2021/12/27 03:56:16;;;;;;;;;;;2.60;98.60;;;;;;5001423;28;19918;-73
2021/12/27 03:58:52;;;;;;;;;;;2.70;98.60;;;;;;5003195;28;20353;-73
2021/12/27 04:01:21;;;;;;;;;;;2.60;98.60;;;;;;5002391;28;19980;-73
2021/12/27 04:03:49;;;;;;;;;;;2.60;99.10;;;;;;5006961;28;19906;-74
2021/12/27 04:06:15;;;;;;;;;;;2.60;98.80;;;;;;5004823;28;19972;-73
2021/12/27 04:08:41;;;;;;;;;;;2.60;98.70;;;;;;5005598;28;19905;-74
2021/12/27 04:11:07;;;;;;;;;;;2.70;98.70;;;;;;5020277;23;20280;-67
2021/12/27 04:13:33;;;;;;;;;;;2.70;98.80;;;;;;4995209;28;19906;-66
2021/12/27 04:15:59;;;;;;;;;;;2.70;98.80;;;;;;4986946;28;19906;-67
2021/12/27 04:18:25;;;;;;;;;;;2.70;98.80;;;;;;4987141;28;19913;-67
2021/12/27 04:20:51;;;;;;;;;;;2.60;99.00;;;;;;4986914;28;19906;-66
2021/12/27 04:23:17;;;;;;;;;;;2.70;98.90;;;;;;4985777;28;19917;-67
2021/12/27 04:25:43;;;;;;;;;;;2.70;98.70;;;;;;4986555;28;20101;-67
2021/12/27 04:28:09;;;;;;;;;;;2.70;98.90;;;;;;4986910;28;19906;-67
2021/12/27 04:30:34;;;;;;;;;;;2.70;98.80;;;;;;4986823;28;19910;-67
2021/12/27 04:33:00;;;;;;;;;;;2.80;98.80;;;;;;4986780;28;19906;-67
2021/12/27 04:35:26;;;;;;;;;;;2.70;98.80;;;;;;4986440;28;19906;-67
2021/12/27 04:37:51;;;;;;;;;;;2.80;98.70;;;;;;4986650;28;19913;-67
2021/12/27 04:40:18;;;;;;;;;;;2.80;98.70;;;;;;4986667;28;19928;-67
2021/12/27 04:42:48;;;;;;;;;;;2.80;98.60;;;;;;4986251;28;20319;-67
2021/12/27 04:45:15;;;;;;;;;;;2.80;98.70;;;;;;4986337;28;19906;-67
2021/12/27 04:47:41;;;;;;;;;;;2.80;98.70;;;;;;4986548;28;19946;-67
2021/12/27 04:50:07;;;;;;;;;;;2.80;98.80;;;;;;4986563;28;20227;-67
2021/12/27 04:52:32;;;;;;;;;;;2.70;98.70;;;;;;4986399;28;19906;-67
2021/12/27 04:54:58;;;;;;;;;;;2.80;98.80;;;;;;4986167;28;19906;-67
2021/12/27 04:57:24;;;;;;;;;;;2.80;98.90;;;;;;4985054;28;19905;-67
2021/12/27 04:59:49;;;;;;;;;;;2.80;98.80;;;;;;4986204;28;20216;-68
2021/12/27 05:02:15;;;;;;;;;;;2.80;98.80;;;;;;4985966;28;19978;-67
2021/12/27 05:04:41;;;;;;;;;;;2.80;98.90;;;;;;4985666;28;19932;-67
2021/12/27 05:07:06;;;;;;;;;;;2.80;98.90;;;;;;4986312;28;19906;-66
2021/12/27 05:09:32;;;;;;;;;;;2.80;98.90;;;;;;4985178;28;19905;-67
2021/12/27 05:11:58;;;;;;;;;;;2.80;98.80;;;;;;4985587;28;19909;-67
2021/12/27 05:14:23;;;;;;;;;;;2.80;98.80;;;;;;4984570;28;19945;-67
2021/12/27 05:16:49;;;;;;;;;;;2.90;98.70;;;;;;4985981;28;20148;-67
2021/12/27 05:19:15;;;;;;;;;;;2.80;98.70;;;;;;4985938;28;19913;-67
2021/12/27 05:21:40;;;;;;;;;;;2.80;98.90;;;;;;4985646;28;19918;-67
2021/12/27 05:24:06;;;;;;;;;;;2.80;98.90;;;;;;4985879;28;19912;-68
2021/12/27 05:26:32;;;;;;;;;;;2.80;98.80;;;;;;4985682;28;19913;-67
2021/12/27 05:28:58;;;;;;;;;;;2.90;98.80;;;;;;4976444;28;19911;-67
2021/12/27 05:31:24;;;;;;;;;;;2.90;98.70;;;;;;4966390;29;19953;-67
2021/12/27 05:33:49;;;;;;;;;;;2.80;98.90;;;;;;4966189;28;19914;-67
2021/12/27 05:36:15;;;;;;;;;;;2.80;98.90;;;;;;4967714;28;19906;-66
2021/12/27 05:38:41;;;;;;;;;;;2.80;99.20;;;;;;4984154;28;19918;-67
2021/12/27 05:41:07;;;;;;;;;;;2.90;98.90;;;;;;4985011;28;19929;-67
2021/12/27 05:43:32;;;;;;;;;;;2.80;98.90;;;;;;4985541;28;19988;-67
2021/12/27 05:45:58;;;;;;;;;;;2.80;98.90;;;;;;4985210;28;20113;-67
2021/12/27 05:48:24;;;;;;;;;;;2.90;98.70;;;;;;4985380;28;19977;-66
2021/12/27 05:50:50;;;;;;;;;;;2.90;98.70;;;;;;4985143;28;19913;-67
2021/12/27 05:53:16;;;;;;;;;;;2.90;98.80;;;;;;4985418;28;19906;-67
2021/12/27 05:55:44;;;;;;;;;;;2.90;98.90;;;;;;4985196;28;19918;-67
2021/12/27 05:58:10;;;;;;;;;;;2.80;98.90;;;;;;4984546;28;20109;-67
2021/12/27 06:00:36;;;;;;;;;;;2.90;98.70;;;;;;4984186;28;19906;-67
2021/12/27 06:03:02;;;;;;;;;;;2.90;98.70;;;;;;4984862;28;20116;-67
2021/12/27 06:05:28;;;;;;;;;;;2.80;98.70;;;;;;4984904;28;19929;-67
2021/12/27 06:07:54;;;;;;;;;;;2.90;98.90;;;;;;4985086;28;19969;-67
2021/12/27 06:10:19;;;;;;;;;;;2.90;98.90;;;;;;4985189;28;19944;-67
2021/12/27 06:12:47;;;;;;;;;;;2.80;99.00;;;;;;4984535;28;20197;-67
2021/12/27 06:15:13;;;;;;;;;;;2.80;99.20;;;;;;4984237;28;19929;-67
2021/12/27 06:17:39;;;;;;;;;;;2.80;99.20;;;;;;4984777;28;20204;-66
2021/12/27 06:20:07;;;;;;;;;;;2.80;99.20;;;;;;4984891;28;19977;-67
2021/12/27 06:22:33;;;;;;;;;;;2.90;99.10;;;;;;4984709;28;20109;-67
2021/12/27 06:25:03;;;;;;;;;;;2.90;98.90;;;;;;4984031;28;20200;-67
2021/12/27 06:27:31;;;;;;;;;;;2.90;99.00;;;;;;4984606;28;19906;-67
2021/12/27 06:29:57;;;;;;;;;;;2.90;98.90;;;;;;4984675;28;19913;-67
2021/12/27 06:32:23;;;;;;;;;;;2.90;99.00;;;;;;4983390;28;20276;-67
2021/12/27 06:34:49;;;;;;;;;;;2.90;99.00;;;;;;4984317;28;19906;-67
2021/12/27 06:37:14;;;;;;;;;;;2.90;99.10;;;;;;4984658;28;19906;-67
2021/12/27 06:39:40;;;;;;;;;;;2.90;99.10;;;;;;4984479;28;19973;-67
2021/12/27 06:42:06;;;;;;;;;;;3.00;99.00;;;;;;4984016;28;19910;-67
2021/12/27 06:44:32;;;;;;;;;;;2.90;99.00;;;;;;4984203;28;19941;-67
2021/12/27 06:46:59;;;;;;;;;;;2.90;99.10;;;;;;4984342;28;19929;-67
2021/12/27 06:49:27;;;;;;;;;;;2.90;99.00;;;;;;4984373;28;19905;-67
2021/12/27 06:51:52;;;;;;;;;;;2.90;99.00;;;;;;4983900;28;19910;-68
2021/12/27 06:54:18;;;;;;;;;;;2.90;99.00;;;;;;4982957;28;20226;-68
2021/12/27 06:56:44;;;;;;;;;;;2.90;99.10;;;;;;4984059;28;19906;-67
2021/12/27 06:59:09;;;;;;;;;;;2.90;99.10;;;;;;4983707;28;19906;-68
2021/12/27 07:01:35;;;;;;;;;;;3.00;99.20;;;;;;4984129;28;19925;-68
2021/12/27 07:04:01;;;;;;;;;;;2.90;99.10;;;;;;4984101;28;19910;-68
2021/12/27 07:06:26;;;;;;;;;;;3.00;99.00;;;;;;4983708;28;19930;-68
2021/12/27 07:08:52;;;;;;;;;;;2.90;99.20;;;;;;4983984;28;19910;-68
2021/12/27 07:11:18;;;;;;;;;;;3.00;99.20;;;;;;4983761;28;19977;-67
2021/12/27 07:13:43;;;;;;;;;;;3.00;99.00;;;;;;4983970;28;20101;-68
2021/12/27 07:16:09;;;;;;;;;;;3.10;98.90;;;;;;4983814;28;19952;-67
2021/12/27 07:18:35;;;;;;;;;;;3.10;99.00;;;;;;4983899;28;19929;-68
2021/12/27 07:21:00;;;;;;;;;;;3.10;98.90;;;;;;4983903;28;19913;-67
2021/12/27 07:23:26;;;;;;;;;;;3.10;98.80;;;;;;4983784;28;19917;-67
2021/12/27 07:25:52;;;;;;;;;;;3.10;98.80;;;;;;4983702;28;19930;-67
2021/12/27 07:28:17;;;;;;;;;;;3.10;98.80;;;;;;4982512;28;20220;-67
2021/12/27 07:30:43;;;;;;;;;;;3.10;98.70;;;;;;4983698;28;19971;-67
2021/12/27 07:33:09;;;;;;;;;;;3.10;98.90;;;;;;4983703;28;19906;-67
2021/12/27 07:35:35;;;;;;;;;;;3.10;98.90;;;;;;4983561;28;19985;-68
2021/12/27 07:38:01;;;;;;;;;;;3.10;99.10;;;;;;4986960;28;19906;-67
2021/12/27 07:40:27;;;;;;;;;;;3.10;98.80;;;;;;4987602;28;19922;-68
2021/12/27 07:42:53;;;;;;;;;;;3.10;98.90;;;;;;4987214;28;19917;-67
2021/12/27 07:45:19;;;;;;;;;;;3.10;99.00;;;;;;4987374;28;19914;-67
2021/12/27 07:47:45;;;;;;;;;;;3.10;98.80;;;;;;4987679;28;19906;-67
2021/12/27 07:50:10;;;;;;;;;;;3.10;98.90;;;;;;4987528;28;19916;-68
2021/12/27 07:52:36;;;;;;;;;;;3.00;99.00;;;;;;4986305;28;19969;-67
2021/12/27 07:55:02;;;;;;;;;;;3.10;99.10;;;;;;4987213;28;19906;-68
2021/12/27 07:57:28;;;;;;;;;;;3.20;98.90;;;;;;4986097;28;19912;-68
2021/12/27 07:59:54;;;;;;;;;;;3.20;99.00;;;;;;4987334;28;20280;-68
2021/12/27 08:02:19;;;;;;;;;;;3.20;98.70;;;;;;4987232;28;19910;-68
2021/12/27 08:04:45;;;;;;;;;;;3.20;98.60;;;;;;4987014;28;19921;-70
2021/12/27 08:07:11;;;;;;;;;;;3.20;98.50;;;;;;4979432;28;19913;-67
2021/12/27 08:09:37;;;;;;;;;;;3.20;98.70;;;;;;4970296;28;20086;-67
2021/12/27 08:12:04;;;;;;;;;;;3.30;98.80;;;;;;4967460;28;19953;-68
2021/12/27 08:14:29;;;;;;;;;;;3.30;98.70;;;;;;4967027;28;19914;-67
2021/12/27 08:16:55;;;;;;;;;;;3.30;98.80;;;;;;4978957;28;19913;-74
2021/12/27 08:19:21;;;;;;;;;;;3.30;98.90;;;;;;4986452;28;19940;-75
2021/12/27 08:21:46;;;;;;;;;;;3.30;98.90;;;;;;4986888;28;19910;-75
2021/12/27 08:24:12;;;;;;;;;;;3.30;98.80;;;;;;4985281;28;19905;-76
2021/12/27 08:26:38;;;;;;;;;;;3.30;99.00;;;;;;4986399;28;19921;-75
2021/12/27 08:29:08;;;;;;;;;;;3.30;99.00;;;;;;4953289;28;19914;-73
2021/12/27 08:31:34;;;;;;;;;;;3.40;99.00;;;;;;4969599;28;19945;-69
2021/12/27 08:33:59;;;;;;;;;;;3.30;99.00;;;;;;4986660;28;19973;-70
2021/12/27 08:36:25;;;;;;;;;;;3.30;99.00;;;;;;4979678;28;19906;-71
2021/12/27 08:38:51;;;;;;;;;;;3.40;99.00;;;;;;4976226;28;19909;-70
2021/12/27 08:41:16;;;;;;;;;;;3.40;98.90;;;;;;4972515;28;19910;-70
2021/12/27 08:43:42;;;;;;;;;;;3.40;99.00;;;;;;4985872;28;20329;-70
2021/12/27 08:46:08;;;;;;;;;;;3.50;99.10;;;;;;4986021;28;19965;-69
2021/12/27 08:48:34;;;;;;;;;;;3.40;99.00;;;;;;4985829;28;20216;-68
2021/12/27 08:50:59;;;;;;;;;;;3.50;99.10;;;;;;4986619;28;19906;-69
2021/12/27 08:53:25;;;;;;;;;;;3.40;99.10;;;;;;4986004;28;19925;-69
2021/12/27 08:55:51;;;;;;;;;;;3.50;99.30;;;;;;4972786;28;20168;-68
2021/12/27 08:58:16;;;;;;;;;;;3.50;99.20;;;;;;4972233;28;19913;-70
2021/12/27 09:00:43;;;;;;;;;;;3.50;99.30;;;;;;4986189;28;19917;-70
2021/12/27 09:03:11;;;;;;;;;;;3.50;99.30;;;;;;4986185;28;19910;-71
2021/12/27 09:05:38;;;;;;;;;;;3.60;99.20;;;;;;4984770;28;19910;-71
2021/12/27 09:08:03;;;;;;;;;;;3.50;99.20;;;;;;4991068;28;19929;-71
2021/12/27 09:10:29;;;;;;;;;;;3.60;99.30;;;;;;4985835;28;20137;-69
2021/12/27 09:12:55;;;;;;;;;;;3.60;99.20;;;;;;4985259;28;19910;-69
2021/12/27 09:15:21;;;;;;;;;;;3.60;99.30;;;;;;4984566;28;19945;-68
2021/12/27 09:17:46;;;;;;;;;;;3.60;99.20;;;;;;4983024;28;19910;-69
2021/12/27 09:20:12;;;;;;;;;;;3.60;99.20;;;;;;4985873;28;19906;-71
2021/12/27 09:22:38;;;;;;;;;;;3.60;99.20;;;;;;4975524;28;19914;-67
2021/12/27 09:25:04;;;;;;;;;;;3.60;99.40;;;;;;4985020;28;20116;-66
2021/12/27 09:27:30;;;;;;;;;;;3.60;99.30;;;;;;4985372;28;19914;-66
2021/12/27 09:29:55;;;;;;;;;;;3.70;99.40;;;;;;5017105;28;19944;-66
2021/12/27 09:32:21;;;;;;;;;;;3.70;99.40;;;;;;4985633;28;19906;-69
2021/12/27 09:34:47;;;;;;;;;;;3.70;99.20;;;;;;4985506;28;19906;-69
2021/12/27 09:37:12;;;;;;;;;;;3.70;99.10;;;;;;4985065;28;19910;-65
2021/12/27 09:39:38;;;;;;;;;;;3.80;99.30;;;;;;4975935;28;20109;-73
2021/12/27 09:42:04;;;;;;;;;;;3.90;99.20;;;;;;4976570;28;19921;-70
2021/12/27 09:44:30;;;;;;;;;;;3.80;99.10;;;;;;4971718;28;19937;-68
2021/12/27 09:46:56;;;;;;;;;;;3.90;99.10;;;;;;4985066;28;19906;-67
2021/12/27 09:49:22;;;;;;;;;;;3.90;98.90;;;;;;4984439;28;19909;-67
2021/12/27 09:51:49;;;;;;;;;;;3.90;99.00;;;;;;4984335;28;20215;-66
2021/12/27 09:54:15;;;;;;;;;;;3.90;98.90;;;;;;4984878;28;20196;-68
2021/12/27 09:56:41;;;;;;;;;;;3.90;99.00;;;;;;4985067;28;19912;-68
2021/12/27 09:59:06;;;;;;;;;;;3.90;98.90;;;;;;4980334;28;19911;-68
2021/12/27 10:01:32;;;;;;;;;;;3.90;98.80;;;;;;4984608;28;19921;-68
2021/12/27 10:03:59;;;;;;;;;;;4.00;98.90;;;;;;4980633;28;19917;-72
2021/12/27 10:06:26;;;;;;;;;;;4.00;98.80;;;;;;5016008;28;19906;-69
2021/12/27 10:08:53;;;;;;;;;;;4.00;98.80;;;;;;4979817;28;20177;-68
2021/12/27 10:11:22;;;;;;;;;;;4.00;98.70;;;;;;4980250;28;19933;-68
2021/12/27 10:14:06;;;;;;;;;;;4.00;98.80;;;;;;4979026;28;20162;-67
2021/12/27 10:16:32;;;;;;;;;;;4.10;98.80;;;;;;4976171;28;19910;-69
2021/12/27 10:19:00;;;;;;;;;;;4.00;98.90;;;;;;4983585;28;20109;-68
2021/12/27 10:21:26;;;;;;;;;;;4.00;99.10;;;;;;4980744;28;19917;-67
2021/12/27 10:24:17;;;;;;;;;;;4.10;99.20;;;;;;4974730;28;20102;-67
2021/12/27 10:26:44;;;;;;;;;;;4.10;98.90;;;;;;4984122;28;19937;-68
2021/12/27 10:29:19;;;;;;;;;;;4.20;98.80;;;;;;4984174;28;20153;-68
2021/12/27 10:32:04;;;;;;;;;;;4.10;98.70;;;;;;4984456;28;19914;-67
2021/12/27 10:34:39;;;;;;;;;;;4.10;98.80;;;;;;4984483;28;19906;-68
2021/12/27 10:37:13;;;;;;;;;;;4.10;98.70;;;;;;4984330;28;19916;-67
2021/12/27 10:39:43;;;;;;;;;;;4.20;98.80;;;;;;4984504;28;20225;-68
2021/12/27 10:42:10;;;;;;;;;;;4.20;98.80;;;;;;5027401;23;19930;-71
2021/12/27 10:44:36;;;;;;;;;;;4.20;98.70;;;;;;4986027;28;19912;-71
2021/12/27 10:47:03;;;;;;;;;;;4.30;98.70;;;;;;5001061;28;19906;-71
2021/12/27 10:49:48;;;;;;;;;;;4.30;98.60;;;;;;5018002;28;19910;-71
2021/12/27 10:52:13;;;;;;;;;;;4.20;98.60;;;;;;5002417;28;19934;-76
2021/12/27 10:54:39;;;;;;;;;;;4.30;98.80;;;;;;5003759;28;20140;-78
2021/12/27 10:57:05;;;;;;;;;;;4.30;98.50;;;;;;5005004;28;19973;-78
2021/12/27 10:59:31;;;;;;;;;;;4.40;98.50;;;;;;4986163;28;19932;-72
2021/12/27 11:02:06;;;;;;;;;;;4.50;98.40;;;;;;5003822;28;19984;-76
2021/12/27 11:04:31;;;;;;;;;;;4.50;98.20;;;;;;4987690;28;19912;-74
2021/12/27 11:06:58;;;;;;;;;;;4.50;98.10;;;;;;5003923;28;20112;-78
2021/12/27 11:09:24;;;;;;;;;;;4.50;98.10;;;;;;5002405;28;19906;-80
2021/12/27 11:11:50;;;;;;;;;;;4.50;97.60;;;;;;4985943;28;19981;-73
2021/12/27 11:14:16;;;;;;;;;;;4.50;97.80;;;;;;4996729;28;19929;-72
2021/12/27 11:16:42;;;;;;;;;;;4.50;97.70;;;;;;5002963;28;19913;-71
2021/12/27 11:19:07;;;;;;;;;;;4.40;97.70;;;;;;4985757;28;19916;-74
2021/12/27 11:21:36;;;;;;;;;;;4.40;97.80;;;;;;5001415;28;19909;-74
2021/12/27 11:24:03;;;;;;;;;;;4.40;97.70;;;;;;5001667;28;19948;-75
2021/12/27 11:26:30;;;;;;;;;;;4.40;97.90;;;;;;4985735;28;19912;-72
2021/12/27 11:29:19;;;;;;;;;;;4.40;97.70;;;;;;5001855;28;19957;-72
2021/12/27 11:31:47;;;;;;;;;;;4.40;97.90;;;;;;5002615;28;19956;-72
2021/12/27 11:34:14;;;;;;;;;;;4.40;97.70;;;;;;5001587;28;19910;-71
2021/12/27 11:36:44;;;;;;;;;;;4.40;97.80;;;;;;5000207;28;19906;-69
2021/12/27 11:39:28;;;;;;;;;;;4.40;97.80;;;;;;5002237;28;19977;-71
2021/12/27 11:41:59;;;;;;;;;;;4.40;97.90;;;;;;5001701;28;19920;-72
2021/12/27 11:44:53;;;;;;;;;;;4.40;97.90;;;;;;4999423;28;20112;-70
2021/12/27 11:47:23;;;;;;;;;;;4.40;98.00;;;;;;4994937;28;19948;-70
2021/12/27 11:49:52;;;;;;;;;;;4.40;98.00;;;;;;5002670;28;19932;-72
2021/12/27 11:52:25;;;;;;;;;;;4.50;98.00;;;;;;5002022;28;20173;-72
2021/12/27 11:54:58;;;;;;;;;;;4.50;98.00;;;;;;5001269;28;19937;-77
2021/12/27 11:57:43;;;;;;;;;;;4.50;98.20;;;;;;4990097;28;19928;-77
2021/12/27 12:00:20;;;;;;;;;;;4.60;97.80;;;;;;5025266;28;20267;-69
2021/12/27 12:03:14;;;;;;;;;;;4.60;97.70;;;;;;5002492;28;19928;-68
2021/12/27 12:05:44;;;;;;;;;;;4.60;97.70;;;;;;4999500;28;19914;-70
2021/12/27 12:08:17;;;;;;;;;;;4.60;97.80;;;;;;5002460;28;19937;-68
2021/12/27 12:10:50;;;;;;;;;;;4.70;97.70;;;;;;4998458;28;19952;-74
2021/12/27 12:13:21;;;;;;;;;;;4.80;97.60;;;;;;5000964;28;19936;-69
2021/12/27 12:16:15;;;;;;;;;;;4.80;97.60;;;;;;4997567;28;20537;-69
2021/12/27 12:19:03;;;;;;;;;;;4.70;97.70;;;;;;4997407;28;19910;-70
2021/12/27 12:21:29;;;;;;;;;;;4.70;97.50;;;;;;4998570;28;20109;-70
2021/12/27 12:23:56;;;;;;;;;;;4.70;97.50;;;;;;5004046;28;19906;-70
2021/12/27 12:26:22;;;;;;;;;;;4.70;97.60;;;;;;5004823;28;19928;-69
2021/12/27 12:28:47;;;;;;;;;;;4.80;97.40;;;;;;5004816;28;19909;-70
2021/12/27 12:31:13;;;;;;;;;;;4.70;97.60;;;;;;5005189;28;19906;-69
2021/12/27 12:33:39;;;;;;;;;;;4.70;97.30;;;;;;4988476;28;20112;-69
2021/12/27 12:36:04;;;;;;;;;;;4.70;97.40;;;;;;4971171;28;19935;-69
2021/12/27 12:38:30;;;;;;;;;;;4.60;97.70;;;;;;5005728;28;19976;-66
2021/12/27 12:41:09;;;;;;;;;;;4.60;97.80;;;;;;5004827;28;19914;-72
2021/12/27 12:43:56;;;;;;;;;;;4.60;97.60;;;;;;5002631;28;19937;-67
2021/12/27 12:46:41;;;;;;;;;;;4.50;97.80;;;;;;5003521;28;20117;-74
2021/12/27 12:49:10;;;;;;;;;;;4.50;97.80;;;;;;5005496;28;19917;-73
2021/12/27 12:51:40;;;;;;;;;;;4.60;97.80;;;;;;5004391;28;20323;-73
2021/12/27 12:54:28;;;;;;;;;;;4.60;97.70;;;;;;5005537;28;19909;-69
2021/12/27 12:56:56;;;;;;;;;;;4.50;97.70;;;;;;4996056;28;19992;-67
2021/12/27 12:59:41;;;;;;;;;;;4.50;97.80;;;;;;5004900;28;19941;-67
2021/12/27 13:02:16;;;;;;;;;;;4.40;97.80;;;;;;5005023;28;19921;-66
2021/12/27 13:04:44;;;;;;;;;;;4.50;97.80;;;;;;5005172;28;19937;-66
2021/12/27 13:07:11;;;;;;;;;;;4.40;97.70;;;;;;5005305;28;19913;-73
2021/12/27 13:09:40;;;;;;;;;;;4.40;97.80;;;;;;5004520;28;19912;-75
2021/12/27 13:12:06;;;;;;;;;;;4.30;97.70;;;;;;5005240;28;19933;-71
2021/12/27 13:14:32;;;;;;;;;;;4.20;97.80;;;;;;5005108;28;20188;-68
2021/12/27 13:16:58;;;;;;;;;;;4.20;97.80;;;;;;5011730;28;19905;-69
2021/12/27 13:19:23;;;;;;;;;;;4.20;97.90;;;;;;5004069;28;19968;-68
2021/12/27 13:21:49;;;;;;;;;;;4.20;98.00;;;;;;5004795;28;20144;-69
2021/12/27 13:24:15;;;;;;;;;;;4.10;97.80;;;;;;5004225;28;19921;-68
2021/12/27 13:26:40;;;;;;;;;;;4.10;97.90;;;;;;5004935;28;20076;-69
2021/12/27 13:29:06;;;;;;;;;;;4.10;97.90;;;;;;5003857;28;19910;-74
2021/12/27 13:31:32;;;;;;;;;;;4.00;98.00;;;;;;5003190;28;19906;-72
2021/12/27 13:34:01;;;;;;;;;;;4.00;98.10;;;;;;5003907;28;19911;-72
2021/12/27 13:36:35;;;;;;;;;;;3.90;98.20;;;;;;5003280;28;19913;-72
2021/12/27 13:39:14;;;;;;;;;;;4.00;98.20;;;;;;5001171;28;20093;-72
2021/12/27 13:41:50;;;;;;;;;;;4.00;98.00;;;;;;5002662;28;19956;-72
2021/12/27 13:44:35;;;;;;;;;;;4.00;98.00;;;;;;5003243;28;19912;-73
2021/12/27 13:47:07;;;;;;;;;;;4.00;98.10;;;;;;5003332;28;20205;-74
2021/12/27 13:49:33;;;;;;;;;;;4.00;98.00;;;;;;4984941;28;19913;-71
2021/12/27 13:52:06;;;;;;;;;;;4.00;98.20;;;;;;5003806;28;19905;-74
2021/12/27 13:54:43;;;;;;;;;;;4.00;98.30;;;;;;4987076;28;19917;-75
2021/12/27 13:57:08;;;;;;;;;;;4.00;98.10;;;;;;5003531;28;19948;-74
2021/12/27 13:59:35;;;;;;;;;;;4.00;98.30;;;;;;5004239;28;19909;-75
2021/12/27 14:02:02;;;;;;;;;;;4.00;98.10;;;;;;5002181;28;19918;-75
2021/12/27 14:04:29;;;;;;;;;;;4.00;98.00;;;;;;5003146;28;19925;-77
2021/12/27 14:06:55;;;;;;;;;;;4.00;98.10;;;;;;5002623;28;19916;-74
2021/12/27 14:09:28;;;;;;;;;;;4.00;98.20;;;;;;5004183;28;20124;-74
2021/12/27 14:11:56;;;;;;;;;;;4.00;98.30;;;;;;5004047;28;19906;-73
2021/12/27 14:14:37;;;;;;;;;;;4.10;98.30;;;;;;5003803;28;19937;-73
2021/12/27 14:17:03;;;;;;;;;;;4.00;98.30;;;;;;5003441;28;19941;-72
2021/12/27 14:19:29;;;;;;;;;;;4.10;98.30;;;;;;5004290;28;19906;-73
2021/12/27 14:22:02;;;;;;;;;;;4.10;98.40;;;;;;5004144;28;19916;-75
2021/12/27 14:24:34;;;;;;;;;;;4.10;98.40;;;;;;5001931;28;19914;-76
2021/12/27 14:27:01;;;;;;;;;;;4.10;98.50;;;;;;5003978;28;19921;-76
2021/12/27 14:29:26;;;;;;;;;;;4.20;98.50;;;;;;5003266;28;19947;-75
2021/12/27 14:31:54;;;;;;;;;;;4.20;98.50;;;;;;5003735;28;19906;-75
2021/12/27 14:34:38;;;;;;;;;;;4.10;98.70;;;;;;4986363;28;19913;-76
2021/12/27 14:37:04;;;;;;;;;;;4.20;98.70;;;;;;5003726;28;19926;-77
2021/12/27 14:39:30;;;;;;;;;;;4.20;98.70;;;;;;5002304;28;19921;-77